Time;durP1;ratioP1;P1;durP2;ratioP2;P2;SDS_P1;SDS_P2;PMS_P1;PMS_P2;Temp;Humidity;BMP_temperature;BMP_pressure;BME280_temperature;BME280_humidity;BME280_pressure;Samples;Min_cycle;Max_cycle;Signal;HPM_P1;HPM_P2
2023/06/22 00:00:50;;;;;;;22.60;14.68;;;20.80;99.90;;;;;;4973329;28;20047;-50
2023/06/22 00:03:21;;;;;;;18.58;15.45;;;20.70;99.90;;;;;;4972876;28;20042;-51
2023/06/22 00:05:47;;;;;;;19.63;15.10;;;20.70;99.90;;;;;;4972263;28;20516;-50
2023/06/22 00:08:13;;;;;;;21.25;15.35;;;20.60;99.90;;;;;;4970357;28;20039;-50
2023/06/22 00:10:39;;;;;;;20.95;15.60;;;20.60;99.90;;;;;;4954445;28;20039;-50
2023/06/22 00:13:06;;;;;;;21.00;15.65;;;20.50;99.90;;;;;;4936327;28;20051;-48
2023/06/22 00:15:33;;;;;;;18.45;16.02;;;20.50;99.90;;;;;;4953810;28;20039;-48
2023/06/22 00:17:59;;;;;;;21.08;17.85;;;20.50;99.90;;;;;;4953499;28;20035;-49
2023/06/22 00:20:27;;;;;;;19.92;17.20;;;20.50;99.90;;;;;;4936829;28;20471;-52
2023/06/22 00:22:54;;;;;;;18.83;16.80;;;20.40;99.90;;;;;;4953442;28;20374;-49
2023/06/22 00:25:20;;;;;;;21.08;17.45;;;20.30;99.90;;;;;;4952630;28;20050;-51
2023/06/22 00:27:46;;;;;;;23.98;19.00;;;20.30;99.90;;;;;;4953702;28;20047;-51
2023/06/22 00:30:12;;;;;;;21.10;17.30;;;20.30;99.90;;;;;;4952182;28;20519;-49
2023/06/22 00:32:38;;;;;;;21.13;18.92;;;20.20;99.90;;;;;;4966854;28;20421;-48
2023/06/22 00:35:05;;;;;;;23.85;19.48;;;20.20;99.90;;;;;;4972992;28;20043;-47
2023/06/22 00:37:31;;;;;;;20.52;18.23;;;20.20;99.90;;;;;;4972354;28;20046;-48
2023/06/22 00:39:56;;;;;;;23.52;20.13;;;20.20;99.90;;;;;;4952719;28;20042;-48
2023/06/22 00:42:22;;;;;;;25.50;20.40;;;20.10;99.90;;;;;;4972227;28;20454;-49
2023/06/22 00:44:48;;;;;;;22.30;19.30;;;20.10;99.90;;;;;;4971657;28;20133;-51
2023/06/22 00:47:17;;;;;;;25.85;21.25;;;20.10;99.90;;;;;;4972131;28;20027;-48
2023/06/22 00:49:43;;;;;;;23.27;20.77;;;20.10;99.90;;;;;;4971273;28;20085;-51
2023/06/22 00:52:13;;;;;;;25.90;22.90;;;20.00;99.90;;;;;;4920601;28;20047;-50
2023/06/22 00:54:45;;;;;;;27.45;21.83;;;20.10;99.90;;;;;;4953122;28;20451;-47
2023/06/22 00:57:15;;;;;;;28.70;22.80;;;20.00;99.90;;;;;;4952458;28;20050;-48
2023/06/22 00:59:43;;;;;;;26.60;22.88;;;20.00;99.90;;;;;;4952566;28;20122;-50
2023/06/22 01:02:09;;;;;;;29.63;24.13;;;20.00;99.90;;;;;;4953178;28;20043;-49
2023/06/22 01:04:36;;;;;;;28.45;24.38;;;19.90;99.90;;;;;;4952863;28;20435;-47
2023/06/22 01:07:25;;;;;;;30.42;24.15;;;19.90;99.90;;;;;;4953755;28;20035;-50
2023/06/22 01:10:08;;;;;;;29.65;23.20;;;19.90;99.90;;;;;;4969866;28;20078;-49
2023/06/22 01:12:48;;;;;;;28.15;23.60;;;19.90;99.90;;;;;;4952907;28;20078;-51
2023/06/22 01:16:04;;;;;;;26.73;22.95;;;19.90;99.90;;;;;;4970416;28;20038;-50
2023/06/22 01:18:36;;;;;;;30.05;24.95;;;19.90;99.90;;;;;;4969931;28;20745;-51
2023/06/22 01:21:07;;;;;;;29.92;25.08;;;19.80;99.90;;;;;;4971713;28;20042;-49
2023/06/22 01:23:45;;;;;;;30.98;25.33;;;19.90;99.90;;;;;;4972155;28;20075;-49
2023/06/22 01:26:43;;;;;;;29.08;25.30;;;19.90;99.90;;;;;;4971920;28;20081;-49
2023/06/22 01:29:13;;;;;;;28.65;24.13;;;19.90;99.90;;;;;;4947108;28;20062;-49
2023/06/22 01:31:40;;;;;;;28.27;24.08;;;19.90;99.90;;;;;;4965644;28;20046;-50
2023/06/22 01:34:08;;;;;;;29.23;24.20;;;19.70;99.90;;;;;;4936255;28;20435;-50
2023/06/22 01:36:35;;;;;;;26.55;23.65;;;19.70;99.90;;;;;;4951692;28;20549;-51
2023/06/22 01:39:03;;;;;;;30.67;25.52;;;19.70;99.90;;;;;;4952685;28;20059;-47
2023/06/22 01:41:31;;;;;;;28.95;23.63;;;19.70;99.90;;;;;;4952265;28;20062;-50
2023/06/22 01:43:57;;;;;;;30.77;25.23;;;19.70;99.90;;;;;;4952189;28;20054;-49
2023/06/22 01:46:23;;;;;;;29.48;25.33;;;19.60;99.90;;;;;;4952505;28;20028;-49
2023/06/22 01:48:50;;;;;;;29.75;23.65;;;19.60;99.90;;;;;;4952421;28;20035;-50
2023/06/22 01:51:16;;;;;;;32.00;24.75;;;19.60;99.90;;;;;;4965502;28;20035;-49
2023/06/22 01:53:42;;;;;;;30.42;26.80;;;19.50;99.90;;;;;;4971473;28;20038;-50
2023/06/22 01:56:08;;;;;;;28.15;23.73;;;19.40;99.90;;;;;;4971086;28;20101;-49
2023/06/22 01:58:41;;;;;;;28.58;25.45;;;19.40;99.90;;;;;;4971565;28;20034;-49
2023/06/22 02:01:09;;;;;;;30.77;26.95;;;19.40;99.90;;;;;;4971193;28;20047;-49
2023/06/22 02:03:40;;;;;;;30.60;26.23;;;19.40;99.90;;;;;;4971236;28;20129;-48
2023/06/22 02:06:10;;;;;;;31.00;26.92;;;19.40;99.90;;;;;;4937677;28;20038;-48
2023/06/22 02:08:51;;;;;;;31.55;26.42;;;19.40;99.90;;;;;;4954277;28;20446;-50
2023/06/22 02:11:20;;;;;;;35.60;28.85;;;19.40;99.90;;;;;;4952419;28;20521;-51
2023/06/22 02:13:46;;;;;;;31.15;26.63;;;19.20;99.90;;;;;;4952437;28;20463;-50
2023/06/22 02:16:13;;;;;;;33.30;28.80;;;19.20;99.90;;;;;;4951926;28;20131;-48
2023/06/22 02:18:40;;;;;;;31.40;27.70;;;19.10;99.90;;;;;;4952291;28;20039;-52
2023/06/22 02:21:06;;;;;;;33.00;28.08;;;19.10;99.90;;;;;;4953770;28;20039;-49
2023/06/22 02:23:35;;;;;;;30.90;27.63;;;19.00;99.90;;;;;;4971259;28;20050;-50
2023/06/22 02:26:02;;;;;;;30.75;26.77;;;19.00;99.90;;;;;;4963908;28;20510;-47
2023/06/22 02:28:27;;;;;;;35.78;29.80;;;19.00;99.90;;;;;;4952292;28;20043;-52
2023/06/22 02:30:53;;;;;;;31.02;27.67;;;18.90;99.90;;;;;;4951934;28;20498;-48
2023/06/22 02:33:19;;;;;;;33.08;27.98;;;18.90;99.90;;;;;;4952115;28;20505;-46
2023/06/22 02:35:47;;;;;;;35.20;29.42;;;18.90;99.90;;;;;;4934644;28;20325;-50
2023/06/22 02:38:14;;;;;;;32.30;28.90;;;18.80;99.90;;;;;;4951600;28;20043;-48
2023/06/22 02:40:39;;;;;;;33.38;29.77;;;18.80;99.90;;;;;;4951510;28;20396;-49
2023/06/22 02:43:05;;;;;;;33.00;29.15;;;18.80;99.90;;;;;;4951799;28;20107;-47
2023/06/22 02:45:31;;;;;;;33.75;29.35;;;18.70;99.90;;;;;;4951801;28;20047;-50
2023/06/22 02:47:57;;;;;;;34.22;30.55;;;18.60;99.90;;;;;;4951556;28;20035;-48
2023/06/22 02:50:23;;;;;;;36.95;32.10;;;18.60;99.90;;;;;;4951839;28;20106;-49
2023/06/22 02:52:49;;;;;;;38.13;31.95;;;18.50;99.90;;;;;;4951665;28;20054;-50
2023/06/22 02:55:14;;;;;;;36.65;31.00;;;18.40;99.90;;;;;;4951785;28;20043;-49
2023/06/22 02:57:43;;;;;;;38.05;33.92;;;18.40;99.90;;;;;;4951972;28;20079;-51
2023/06/22 03:00:16;;;;;;;36.92;32.45;;;18.40;99.90;;;;;;4951483;28;20042;-49
2023/06/22 03:02:46;;;;;;;34.30;30.43;;;18.40;99.90;;;;;;4951708;28;20205;-49
2023/06/22 03:05:13;;;;;;;36.25;32.45;;;18.40;99.90;;;;;;4951732;28;20271;-48
2023/06/22 03:07:41;;;;;;;36.35;31.50;;;18.40;99.90;;;;;;4962923;28;20053;-50
2023/06/22 03:10:09;;;;;;;37.45;32.45;;;18.40;99.90;;;;;;4974287;28;20144;-50
2023/06/22 03:12:35;;;;;;;38.28;32.72;;;18.40;99.90;;;;;;4974562;28;20066;-50
2023/06/22 03:15:00;;;;;;;35.40;31.15;;;18.30;99.90;;;;;;4973293;28;20442;-51
2023/06/22 03:17:26;;;;;;;37.45;30.92;;;18.40;99.90;;;;;;4938096;28;20054;-48
2023/06/22 03:19:52;;;;;;;36.85;30.25;;;18.40;99.90;;;;;;4937546;28;20102;-49
2023/06/22 03:22:17;;;;;;;34.53;30.27;;;18.40;99.90;;;;;;4954993;28;20122;-49
2023/06/22 03:24:43;;;;;;;38.15;30.38;;;18.40;99.90;;;;;;4921537;28;20043;-49
2023/06/22 03:27:09;;;;;;;35.10;29.88;;;18.30;99.90;;;;;;4959355;28;20402;-47
2023/06/22 03:29:34;;;;;;;33.15;29.65;;;18.30;99.90;;;;;;4973842;28;20039;-48
2023/06/22 03:32:00;;;;;;;35.38;30.35;;;18.20;99.90;;;;;;4964072;28;20113;-50
2023/06/22 03:34:26;;;;;;;35.38;29.80;;;18.20;99.90;;;;;;4954196;28;20043;-52
2023/06/22 03:36:52;;;;;;;36.55;29.42;;;18.20;99.90;;;;;;4936803;28;20130;-47
2023/06/22 03:39:18;;;;;;;34.90;30.05;;;18.20;99.90;;;;;;4954940;28;20211;-50
2023/06/22 03:41:43;;;;;;;31.83;28.38;;;18.10;99.90;;;;;;4968752;28;20054;-46
2023/06/22 03:44:12;;;;;;;31.83;27.60;;;18.20;99.90;;;;;;4954146;28;20062;-48
2023/06/22 03:46:38;;;;;;;32.83;27.70;;;18.10;99.90;;;;;;4954223;28;20046;-50
2023/06/22 03:49:04;;;;;;;31.20;27.83;;;18.10;99.90;;;;;;4954604;28;20027;-48
2023/06/22 03:51:31;;;;;;;33.75;28.67;;;18.10;99.90;;;;;;4954095;28;20123;-50
2023/06/22 03:53:57;;;;;;;31.50;28.10;;;18.00;99.90;;;;;;4954283;28;20050;-50
2023/06/22 03:56:23;;;;;;;31.63;28.05;;;18.00;99.90;;;;;;4954568;28;20043;-49
2023/06/22 03:58:48;;;;;;;30.52;27.23;;;18.10;99.90;;;;;;4973398;28;20072;-50
2023/06/22 04:01:14;;;;;;;30.38;27.17;;;18.10;99.90;;;;;;4967382;28;20118;-49
2023/06/22 04:03:41;;;;;;;30.58;27.20;;;18.10;99.90;;;;;;4954449;28;20031;-51
2023/06/22 04:06:07;;;;;;;33.40;29.45;;;18.10;99.90;;;;;;4959739;28;20045;-49
2023/06/22 04:08:32;;;;;;;33.45;28.85;;;18.00;99.90;;;;;;4973100;28;20039;-49
2023/06/22 04:10:58;;;;;;;34.67;29.83;;;18.00;99.90;;;;;;4964791;28;20066;-49
2023/06/22 04:13:24;;;;;;;34.67;30.13;;;18.00;99.90;;;;;;4953777;28;20051;-50
2023/06/22 04:15:49;;;;;;;35.90;30.70;;;18.10;99.90;;;;;;4936783;28;20054;-50
2023/06/22 04:18:15;;;;;;;35.17;28.92;;;18.00;99.90;;;;;;4953401;28;20042;-47
2023/06/22 04:20:40;;;;;;;33.28;29.67;;;18.00;99.90;;;;;;4953650;28;20047;-44
2023/06/22 04:23:06;;;;;;;31.15;27.83;;;18.00;99.90;;;;;;4953804;28;20039;-49
2023/06/22 04:25:32;;;;;;;35.08;30.73;;;18.00;99.90;;;;;;4953850;28;20047;-51
2023/06/22 04:27:57;;;;;;;33.45;29.40;;;18.10;99.90;;;;;;4936586;28;20039;-51
2023/06/22 04:30:23;;;;;;;34.05;30.20;;;18.10;99.90;;;;;;4973011;28;20454;-48
2023/06/22 04:32:56;;;;;;;38.00;31.73;;;18.10;99.90;;;;;;4973050;28;20042;-50
2023/06/22 04:35:22;;;;;;;39.95;32.33;;;18.10;99.90;;;;;;4972364;28;20113;-48
2023/06/22 04:37:49;;;;;;;36.95;32.90;;;18.20;99.90;;;;;;4972319;28;20042;-50
2023/06/22 04:40:15;;;;;;;36.85;32.25;;;18.30;99.90;;;;;;4955708;28;20090;-49
2023/06/22 04:42:51;;;;;;;36.80;32.50;;;18.30;99.90;;;;;;4953367;28;20570;-50
2023/06/22 04:45:17;;;;;;;43.80;34.83;;;18.30;99.90;;;;;;4953367;28;20110;-48
2023/06/22 04:47:45;;;;;;;38.28;33.45;;;18.30;99.90;;;;;;4952636;28;20118;-50
2023/06/22 04:50:11;;;;;;;43.25;36.45;;;18.30;99.90;;;;;;4953299;28;20062;-47
2023/06/22 04:52:37;;;;;;;40.67;35.65;;;18.40;99.90;;;;;;4953205;28;20483;-50
2023/06/22 04:55:03;;;;;;;41.53;36.95;;;18.40;99.90;;;;;;4936132;28;20494;-49
2023/06/22 04:57:32;;;;;;;42.35;37.70;;;18.50;99.90;;;;;;4953455;28;20054;-51
2023/06/22 05:00:12;;;;;;;45.15;38.67;;;18.50;99.90;;;;;;4952934;28;20126;-51
2023/06/22 05:02:41;;;;;;;42.55;37.95;;;18.70;99.90;;;;;;4935756;28;20046;-50
2023/06/22 05:05:07;;;;;;;42.45;37.75;;;18.60;99.90;;;;;;4935639;28;20043;-47
2023/06/22 05:07:36;;;;;;;44.85;38.13;;;18.60;99.90;;;;;;4952505;28;20042;-50
2023/06/22 05:10:03;;;;;;;46.25;37.45;;;18.70;99.90;;;;;;4964869;28;20045;-45
2023/06/22 05:12:30;;;;;;;46.67;36.92;;;18.70;99.90;;;;;;4972597;28;20049;-48
2023/06/22 05:14:56;;;;;;;45.70;37.30;;;18.80;99.90;;;;;;4936111;28;20276;-48
2023/06/22 05:17:22;;;;;;;47.13;38.90;;;18.80;99.90;;;;;;4966917;28;20042;-51
2023/06/22 05:19:48;;;;;;;42.17;36.03;;;18.90;99.90;;;;;;4972109;28;20120;-49
2023/06/22 05:22:15;;;;;;;41.33;36.75;;;18.90;99.90;;;;;;4972065;28;20386;-50
2023/06/22 05:24:41;;;;;;;40.70;34.90;;;18.90;99.90;;;;;;4967777;28;20031;-49
2023/06/22 05:27:07;;;;;;;38.55;33.63;;;19.00;99.90;;;;;;4971740;28;20041;-50
2023/06/22 05:29:32;;;;;;;37.78;32.30;;;19.00;99.90;;;;;;4971708;28;20122;-48
2023/06/22 05:31:58;;;;;;;36.45;31.48;;;19.10;99.90;;;;;;4971440;28;20114;-47
2023/06/22 05:34:24;;;;;;;35.42;31.10;;;19.10;99.90;;;;;;4971763;28;20042;-51
2023/06/22 05:36:49;;;;;;;34.88;31.02;;;19.20;99.90;;;;;;4957645;28;20049;-52
2023/06/22 05:39:15;;;;;;;37.30;31.15;;;19.20;99.90;;;;;;4952595;28;20126;-48
2023/06/22 05:41:43;;;;;;;37.45;30.92;;;19.20;99.90;;;;;;4951925;28;20110;-50
2023/06/22 05:44:08;;;;;;;36.13;31.70;;;19.20;99.90;;;;;;4952659;28;20039;-52
2023/06/22 05:46:34;;;;;;;35.65;30.13;;;19.20;99.90;;;;;;4952285;28;20062;-49
2023/06/22 05:49:00;;;;;;;34.55;30.85;;;19.30;99.90;;;;;;4952279;28;20035;-49
2023/06/22 05:51:26;;;;;;;34.67;30.85;;;19.20;99.90;;;;;;4952179;28;20042;-48
2023/06/22 05:53:51;;;;;;;34.05;30.35;;;19.20;99.90;;;;;;4952428;28;20039;-46
2023/06/22 05:56:17;;;;;;;33.63;29.98;;;19.10;99.90;;;;;;4952320;28;20043;-49
2023/06/22 05:58:43;;;;;;;32.78;28.83;;;19.10;99.90;;;;;;4952614;28;20039;-49
2023/06/22 06:01:08;;;;;;;33.00;28.20;;;19.20;99.90;;;;;;4952436;28;20043;-50
2023/06/22 06:03:40;;;;;;;31.23;27.88;;;19.20;99.90;;;;;;4952345;28;20089;-48
2023/06/22 06:06:07;;;;;;;31.02;25.67;;;19.20;99.90;;;;;;4951998;28;20506;-50
2023/06/22 06:08:33;;;;;;;28.92;25.00;;;19.20;99.90;;;;;;4952191;28;20110;-49
2023/06/22 06:10:58;;;;;;;28.92;24.98;;;19.30;99.90;;;;;;4952202;28;20039;-51
2023/06/22 06:13:24;;;;;;;30.90;25.88;;;19.40;99.90;;;;;;4952208;28;20062;-51
2023/06/22 06:15:54;;;;;;;28.38;24.05;;;19.50;99.90;;;;;;4951999;28;20126;-48
2023/06/22 06:18:20;;;;;;;26.48;23.55;;;19.60;99.90;;;;;;4935944;28;20043;-48
2023/06/22 06:20:46;;;;;;;26.00;23.17;;;19.70;99.90;;;;;;4952068;28;20054;-47
2023/06/22 06:23:12;;;;;;;25.65;22.85;;;19.70;99.90;;;;;;4952078;28;20039;-49
2023/06/22 06:25:38;;;;;;;27.42;23.13;;;19.80;99.90;;;;;;4952387;28;20119;-50
2023/06/22 06:28:03;;;;;;;25.50;22.45;;;19.90;99.90;;;;;;4951969;28;20047;-51
2023/06/22 06:30:29;;;;;;;25.77;21.95;;;20.00;99.90;;;;;;4934847;28;20070;-47
2023/06/22 06:32:55;;;;;;;26.15;21.92;;;20.00;99.90;;;;;;4952140;28;20047;-50
2023/06/22 06:35:21;;;;;;;26.27;21.08;;;20.10;99.90;;;;;;4951840;28;20120;-51
2023/06/22 06:37:49;;;;;;;25.10;20.02;;;20.10;99.90;;;;;;4952934;28;20058;-48
2023/06/22 06:40:16;;;;;;;22.00;19.40;;;20.20;99.90;;;;;;4953216;28;20063;-52
2023/06/22 06:42:49;;;;;;;23.65;20.52;;;20.20;99.90;;;;;;4955588;28;20414;-48
2023/06/22 06:45:22;;;;;;;24.13;20.65;;;20.40;99.90;;;;;;4941185;28;20041;-50
2023/06/22 06:47:49;;;;;;;24.48;19.75;;;20.50;99.90;;;;;;4974870;28;20034;-47
2023/06/22 06:50:15;;;;;;;25.33;20.17;;;20.50;99.90;;;;;;4974696;28;20050;-49
2023/06/22 06:52:41;;;;;;;23.38;20.50;;;20.60;99.90;;;;;;4939340;28;20105;-45
2023/06/22 06:55:11;;;;;;;22.70;20.17;;;20.60;99.90;;;;;;4955223;28;20079;-45
2023/06/22 06:57:38;;;;;;;24.85;19.80;;;20.70;99.90;;;;;;4968726;28;20073;-46
2023/06/22 07:00:13;;;;;;;21.83;19.30;;;20.80;99.90;;;;;;4974346;28;20047;-49
2023/06/22 07:02:40;;;;;;;21.45;18.90;;;20.80;99.90;;;;;;4974415;28;20042;-47
2023/06/22 07:05:06;;;;;;;21.88;18.73;;;20.80;99.90;;;;;;4960382;28;20035;-48
2023/06/22 07:07:32;;;;;;;23.13;19.70;;;21.00;99.90;;;;;;4954808;28;20031;-48
2023/06/22 07:09:58;;;;;;;22.70;17.75;;;21.00;99.90;;;;;;4955046;28;20087;-46
2023/06/22 07:12:24;;;;;;;19.35;17.17;;;21.00;99.90;;;;;;4955525;28;20047;-47
2023/06/22 07:14:50;;;;;;;20.90;17.55;;;21.00;99.90;;;;;;4954849;28;20070;-47
2023/06/22 07:17:16;;;;;;;20.00;15.77;;;21.10;99.90;;;;;;4955197;28;20043;-50
2023/06/22 07:19:42;;;;;;;17.88;15.57;;;21.10;99.90;;;;;;4954806;28;20043;-48
2023/06/22 07:22:08;;;;;;;18.83;14.98;;;21.20;99.90;;;;;;4954845;28;20043;-50
2023/06/22 07:24:33;;;;;;;20.42;16.80;;;21.30;99.90;;;;;;4937671;28;20039;-51
2023/06/22 07:26:59;;;;;;;19.35;16.13;;;21.30;99.90;;;;;;4937291;28;20518;-48
2023/06/22 07:29:26;;;;;;;20.05;16.10;;;21.30;99.90;;;;;;4954868;28;20118;-50
2023/06/22 07:31:52;;;;;;;17.98;15.38;;;21.40;99.90;;;;;;4954685;28;20044;-48
2023/06/22 07:34:18;;;;;;;19.00;15.75;;;21.50;99.90;;;;;;4956501;28;20058;-49
2023/06/22 07:36:45;;;;;;;18.55;15.55;;;21.60;99.90;;;;;;4940351;28;20050;-47
2023/06/22 07:39:12;;;;;;;20.23;16.13;;;21.60;99.90;;;;;;4973240;28;20101;-47
2023/06/22 07:41:39;;;;;;;18.15;15.02;;;21.60;99.90;;;;;;4973586;28;20058;-51
2023/06/22 07:44:06;;;;;;;16.98;14.80;;;21.70;99.90;;;;;;4970455;28;20047;-48
2023/06/22 07:46:32;;;;;;;18.60;14.70;;;21.60;99.90;;;;;;4954559;28;20043;-50
2023/06/22 07:48:59;;;;;;;16.75;13.27;;;21.70;99.90;;;;;;4954749;28;20066;-51
2023/06/22 07:51:25;;;;;;;19.60;16.13;;;21.80;99.90;;;;;;4954562;28;20043;-45
2023/06/22 07:53:51;;;;;;;20.30;14.77;;;21.80;99.90;;;;;;4954052;28;20049;-47
2023/06/22 07:56:20;;;;;;;18.73;15.07;;;21.90;99.90;;;;;;4954594;28;20494;-46
2023/06/22 07:58:46;;;;;;;17.40;14.38;;;21.90;99.90;;;;;;4953467;28;20047;-47
2023/06/22 08:01:14;;;;;;;18.60;14.70;;;21.90;99.90;;;;;;4954035;28;20517;-50
2023/06/22 08:03:39;;;;;;;18.08;14.05;;;22.00;99.90;;;;;;4962319;28;20478;-49
2023/06/22 08:06:05;;;;;;;17.13;13.45;;;22.00;99.90;;;;;;4968833;28;20054;-49
2023/06/22 08:08:31;;;;;;;19.73;15.15;;;22.10;99.90;;;;;;4953918;28;20443;-47
2023/06/22 08:10:57;;;;;;;19.77;14.80;;;22.10;99.90;;;;;;4954322;28;20097;-48
2023/06/22 08:13:23;;;;;;;18.33;15.02;;;22.20;99.90;;;;;;4959053;28;20035;-51
2023/06/22 08:15:49;;;;;;;16.48;14.35;;;22.20;99.90;;;;;;4967573;28;20122;-50
2023/06/22 08:18:15;;;;;;;17.23;12.18;;;22.30;99.90;;;;;;4967207;28;20074;-48
2023/06/22 08:20:41;;;;;;;17.73;12.95;;;22.40;99.90;;;;;;4973014;28;20051;-49
2023/06/22 08:23:06;;;;;;;18.27;14.23;;;22.50;99.90;;;;;;4937786;28;20095;-49
2023/06/22 08:25:34;;;;;;;15.43;11.60;;;22.60;99.90;;;;;;4953644;28;20105;-48
2023/06/22 08:28:01;;;;;;;13.70;11.85;;;22.60;99.90;;;;;;4969770;28;20042;-51
2023/06/22 08:30:27;;;;;;;16.58;12.13;;;22.70;99.90;;;;;;4972812;28;20565;-47
2023/06/22 08:32:53;;;;;;;14.82;11.45;;;22.80;99.90;;;;;;4955912;28;20050;-48
2023/06/22 08:35:20;;;;;;;13.82;11.13;;;22.90;99.90;;;;;;4967333;28;20042;-46
2023/06/22 08:37:54;;;;;;;14.52;11.40;;;23.00;99.90;;;;;;4936879;28;20061;-49
2023/06/22 08:40:20;;;;;;;14.98;10.73;;;23.00;99.90;;;;;;4953405;28;20433;-49
2023/06/22 08:42:46;;;;;;;17.52;11.32;;;23.10;99.90;;;;;;4953320;28;20054;-49
2023/06/22 08:45:13;;;;;;;18.95;10.93;;;23.10;99.90;;;;;;4952287;28;20043;-50
2023/06/22 08:47:40;;;;;;;13.27;9.70;;;23.20;99.90;;;;;;4954384;28;20039;-46
2023/06/22 08:50:08;;;;;;;13.82;9.60;;;23.20;99.90;;;;;;4953177;28;20427;-52
2023/06/22 08:52:34;;;;;;;14.73;9.43;;;23.30;99.90;;;;;;4952603;28;20490;-48
2023/06/22 08:55:00;;;;;;;12.10;9.30;;;23.40;99.90;;;;;;4953055;28;20126;-46
2023/06/22 08:57:26;;;;;;;11.88;9.20;;;23.50;99.90;;;;;;4963795;28;20390;-49
2023/06/22 08:59:52;;;;;;;14.48;10.00;;;23.60;99.90;;;;;;4972270;28;20043;-48
2023/06/22 09:02:19;;;;;;;14.27;9.75;;;23.70;99.90;;;;;;4960398;28;20047;-48
2023/06/22 09:04:46;;;;;;;13.10;9.50;;;23.80;99.90;;;;;;4964551;28;20070;-48
2023/06/22 09:07:12;;;;;;;12.48;9.48;;;23.90;99.90;;;;;;4964803;28;21286;-49
2023/06/22 09:09:37;;;;;;;11.25;9.18;;;24.00;99.90;;;;;;4953141;28;20086;-49
2023/06/22 09:12:04;;;;;;;14.68;9.48;;;24.10;99.90;;;;;;4952828;28;20546;-49
2023/06/22 09:14:29;;;;;;;12.07;8.00;;;24.20;99.90;;;;;;4951301;28;20079;-49
2023/06/22 09:16:55;;;;;;;14.43;9.40;;;24.30;99.90;;;;;;4960829;28;20073;-49
2023/06/22 09:19:21;;;;;;;12.63;8.80;;;24.60;99.90;;;;;;4935219;28;20051;-52
2023/06/22 09:21:46;;;;;;;11.85;8.30;;;24.70;99.90;;;;;;4971504;28;20043;-47
2023/06/22 09:24:12;;;;;;;11.27;8.55;;;24.90;99.90;;;;;;4935708;28;20126;-49
2023/06/22 09:26:38;;;;;;;11.48;8.73;;;25.00;99.90;;;;;;4952414;28;20043;-48
2023/06/22 09:29:05;;;;;;;11.38;7.38;;;25.10;99.90;;;;;;4957891;28;20035;-48
2023/06/22 09:31:31;;;;;;;14.02;8.77;;;25.10;99.90;;;;;;4971741;28;20117;-50
2023/06/22 09:33:57;;;;;;;10.07;8.35;;;25.20;99.90;;;;;;4970471;28;20144;-46
2023/06/22 09:36:23;;;;;;;11.65;8.85;;;25.40;99.90;;;;;;4971139;28;20550;-51
2023/06/22 09:38:55;;;;;;;10.32;7.35;;;25.40;99.90;;;;;;4971081;28;20117;-48
2023/06/22 09:41:21;;;;;;;9.25;7.05;;;25.40;99.90;;;;;;4965330;28;20245;-50
2023/06/22 09:43:48;;;;;;;10.18;7.70;;;25.40;99.90;;;;;;4966696;28;20086;-49
2023/06/22 09:46:17;;;;;;;11.45;7.00;;;25.40;99.90;;;;;;4935356;28;20058;-48
2023/06/22 09:48:43;;;;;;;10.82;7.55;;;25.40;99.90;;;;;;4935208;28;20039;-50
2023/06/22 09:51:09;;;;;;;14.05;7.70;;;25.30;99.90;;;;;;4965104;28;20039;-50
2023/06/22 09:53:35;;;;;;;8.48;6.20;;;25.30;99.90;;;;;;4971621;28;20053;-46
2023/06/22 09:56:01;;;;;;;9.20;6.60;;;25.30;99.90;;;;;;4961704;28;20047;-50
2023/06/22 09:58:27;;;;;;;10.00;7.45;;;25.50;99.90;;;;;;4956707;28;20050;-48
2023/06/22 10:00:54;;;;;;;10.50;6.68;;;25.60;99.90;;;;;;4971616;28;20039;-50
2023/06/22 10:03:20;;;;;;;10.27;7.38;;;25.70;99.90;;;;;;4935290;28;20057;-50
2023/06/22 10:05:46;;;;;;;9.10;6.57;;;26.00;99.90;;;;;;4952350;28;20052;-51
2023/06/22 10:08:12;;;;;;;9.07;6.20;;;26.00;99.90;;;;;;4951927;28;20510;-49
2023/06/22 10:10:37;;;;;;;12.00;6.80;;;26.10;99.90;;;;;;4952293;28;20040;-49
2023/06/22 10:13:10;;;;;;;11.00;6.65;;;26.20;99.90;;;;;;4952367;28;20110;-49
2023/06/22 10:15:35;;;;;;;9.25;6.47;;;26.30;99.90;;;;;;4935232;28;20047;-46
2023/06/22 10:18:01;;;;;;;9.48;5.65;;;26.50;99.90;;;;;;4956175;28;20505;-47
2023/06/22 10:20:28;;;;;;;9.63;5.85;;;26.60;99.90;;;;;;4955872;28;20054;-50
2023/06/22 10:22:53;;;;;;;9.27;6.10;;;26.70;99.90;;;;;;4973852;28;20113;-49
2023/06/22 10:25:19;;;;;;;8.50;5.55;;;26.70;99.90;;;;;;4975101;28;20123;-48
2023/06/22 10:27:45;;;;;;;7.63;4.85;;;26.80;99.90;;;;;;4975646;28;20077;-51
2023/06/22 10:30:12;;;;;;;9.35;5.35;;;26.80;99.90;;;;;;4971472;28;20112;-49
2023/06/22 10:32:39;;;;;;;7.95;4.80;;;26.80;99.90;;;;;;4955795;28;20086;-49
2023/06/22 10:35:06;;;;;;;8.77;5.22;;;26.80;99.90;;;;;;4956158;28;20054;-49
2023/06/22 10:37:32;;;;;;;8.13;5.43;;;26.70;99.90;;;;;;4955533;28;20130;-46
2023/06/22 10:39:57;;;;;;;7.78;4.80;;;26.60;99.90;;;;;;4955842;28;20474;-49
2023/06/22 10:42:23;;;;;;;9.52;5.68;;;26.50;99.90;;;;;;4954469;28;20047;-48
2023/06/22 10:44:49;;;;;;;8.63;5.03;;;26.40;99.90;;;;;;4955462;28;20058;-50
2023/06/22 10:47:14;;;;;;;7.18;4.80;;;26.30;99.90;;;;;;4955580;28;20071;-48
2023/06/22 10:49:40;;;;;;;6.80;4.93;;;26.30;99.90;;;;;;4973896;28;20035;-51
2023/06/22 10:52:08;;;;;;;7.68;4.88;;;26.30;99.90;;;;;;4974836;28;20051;-50
2023/06/22 10:54:34;;;;;;;6.03;4.22;;;26.30;99.90;;;;;;4968054;28;20490;-50
2023/06/22 10:57:00;;;;;;;7.95;4.28;;;26.30;99.90;;;;;;4955676;28;20051;-51
2023/06/22 10:59:27;;;;;;;7.13;4.85;;;26.20;99.90;;;;;;4955431;28;20118;-49
2023/06/22 11:01:53;;;;;;;7.53;4.40;;;26.20;99.90;;;;;;4955267;28;20051;-49
2023/06/22 11:04:19;;;;;;;6.80;4.03;;;26.20;99.90;;;;;;4955431;28;20402;-48
2023/06/22 11:06:44;;;;;;;8.10;4.10;;;26.20;99.90;;;;;;4938454;28;20050;-49
2023/06/22 11:09:10;;;;;;;6.50;3.75;;;26.20;99.90;;;;;;4954655;28;20035;-50
2023/06/22 11:11:35;;;;;;;5.72;3.75;;;26.20;99.90;;;;;;4955240;28;20506;-46
2023/06/22 11:14:01;;;;;;;7.78;4.90;;;26.30;99.90;;;;;;4955233;28;20106;-48
2023/06/22 11:16:27;;;;;;;6.75;4.50;;;26.30;99.90;;;;;;4971047;28;20043;-51
2023/06/22 11:18:53;;;;;;;7.95;4.22;;;26.30;99.90;;;;;;4974167;28;20122;-49
2023/06/22 11:21:18;;;;;;;7.15;4.25;;;26.30;99.90;;;;;;4937833;28;20043;-51
2023/06/22 11:23:45;;;;;;;7.05;4.90;;;26.30;99.90;;;;;;4955113;28;20468;-50
2023/06/22 11:26:10;;;;;;;10.05;5.13;;;26.30;99.90;;;;;;4955280;28;20043;-48
2023/06/22 11:28:36;;;;;;;7.47;4.63;;;26.30;99.90;;;;;;4953981;28;20146;-48
2023/06/22 11:31:01;;;;;;;7.15;4.45;;;26.30;99.90;;;;;;4959086;28;21319;-51
2023/06/22 11:33:27;;;;;;;7.03;4.82;;;26.30;99.90;;;;;;4954644;28;20122;-49
2023/06/22 11:35:53;;;;;;;8.25;5.15;;;26.30;99.90;;;;;;4969430;28;20122;-49
2023/06/22 11:38:18;;;;;;;7.18;4.75;;;26.40;99.90;;;;;;4973811;28;20041;-51
2023/06/22 11:40:44;;;;;;;10.05;5.30;;;26.40;99.90;;;;;;4973726;28;20093;-49
2023/06/22 11:43:10;;;;;;;7.50;4.50;;;26.30;99.90;;;;;;4960046;28;20392;-49
2023/06/22 11:45:35;;;;;;;8.38;4.45;;;26.30;99.90;;;;;;4968739;28;20398;-48
2023/06/22 11:48:01;;;;;;;6.70;4.90;;;26.30;99.90;;;;;;4937732;28;20038;-49
2023/06/22 11:50:29;;;;;;;8.93;4.97;;;26.30;99.90;;;;;;4954678;28;20043;-49
2023/06/22 11:52:55;;;;;;;9.13;5.93;;;26.20;99.90;;;;;;4937106;28;20094;-49
2023/06/22 11:55:21;;;;;;;6.97;4.65;;;26.20;99.90;;;;;;4954267;28;20086;-50
2023/06/22 11:57:55;;;;;;;8.30;4.63;;;26.30;99.90;;;;;;4954261;28;20043;-47
2023/06/22 12:00:23;;;;;;;6.30;3.90;;;26.30;99.90;;;;;;4954368;28;20051;-49
2023/06/22 12:02:52;;;;;;;7.03;4.25;;;26.30;99.90;;;;;;4966347;28;20039;-47
2023/06/22 12:05:22;;;;;;;7.47;4.28;;;26.30;99.90;;;;;;4955435;28;20103;-47
2023/06/22 12:07:48;;;;;;;7.22;3.90;;;26.30;99.90;;;;;;4957324;28;20462;-48
2023/06/22 12:10:14;;;;;;;7.30;4.70;;;26.30;99.90;;;;;;4972176;28;20486;-47
2023/06/22 12:12:40;;;;;;;7.53;3.88;;;26.30;99.90;;;;;;4967399;28;20039;-47
2023/06/22 12:15:06;;;;;;;6.78;4.78;;;26.30;99.90;;;;;;4954292;28;20043;-47
2023/06/22 12:17:32;;;;;;;8.90;5.20;;;26.30;99.90;;;;;;4958994;28;20223;-49
2023/06/22 12:19:58;;;;;;;8.10;5.15;;;26.30;99.90;;;;;;4972768;28;20042;-49
2023/06/22 12:22:24;;;;;;;9.20;5.18;;;26.30;99.90;;;;;;4936839;28;20070;-49
2023/06/22 12:24:49;;;;;;;7.30;4.68;;;26.20;99.90;;;;;;4953875;28;20071;-49
2023/06/22 12:27:18;;;;;;;7.30;5.25;;;26.20;99.90;;;;;;4967441;28;20043;-50
2023/06/22 12:29:47;;;;;;;10.20;5.20;;;26.20;99.90;;;;;;4972998;28;20043;-49